Terminal Aerodrome Forecast
Issued by NWS Corpus Christi, TX

Home | Current Version | Previous Version | Text Only | Print | Product List | Glossary On
Versions: 1 2 3 4 5 6 7 8 9 10 11 12 13 14 15 16 17 18
000
FTUS44 KCRP 191228 AAA
TAFCRP
TAF AMD
KCRP 191228Z 1912/2012 16020G24KT 5SM BR BKN002 OVC007
     FM191300 16022G26KT P6SM SCT009 OVC015
      TEMPO 1913/1914 BKN009
     FM191500 16027G35KT P6SM SCT020 BKN050
     FM200100 15022G28KT P6SM BKN015=

USA.gov is the U.S. government's official web portal to all federal, state and local government web resources and services.